createdAt,value
2022-11-07T00:01:46.632Z,6.29
2022-11-07T00:04:13.789Z,6.33
2022-11-07T00:06:41.074Z,6.31
2022-11-07T00:09:07.799Z,6.35
2022-11-07T00:11:34.473Z,6.33
2022-11-07T00:14:01.095Z,6.31
2022-11-07T00:16:28.901Z,6.28
2022-11-07T00:18:55.795Z,6.16
2022-11-07T00:21:22.576Z,6.22
2022-11-07T00:23:49.282Z,6.29
2022-11-07T00:26:15.852Z,6.36
2022-11-07T00:28:44.194Z,6.44
2022-11-07T00:31:12.984Z,6.55
2022-11-07T00:33:39.963Z,6.54
2022-11-07T00:36:07.351Z,6.63
2022-11-07T00:38:34.026Z,6.61
2022-11-07T00:41:03.835Z,6.55
2022-11-07T00:43:30.892Z,6.52
2022-11-07T00:46:00.186Z,6.40
2022-11-07T00:48:26.888Z,6.49
2022-11-07T00:50:53.419Z,6.51
2022-11-07T00:53:20.029Z,6.38
2022-11-07T00:55:47.572Z,6.27
2022-11-07T00:58:14.688Z,6.37
2022-11-07T01:00:42.058Z,6.15
2022-11-07T01:03:27.757Z,6.11
2022-11-07T01:06:03.755Z,6.02
2022-11-07T01:08:31.173Z,5.89
2022-11-07T01:10:58.725Z,5.78
2022-11-07T01:13:25.864Z,5.77
2022-11-07T01:15:52.743Z,5.62
2022-11-07T01:18:19.288Z,5.57
2022-11-07T01:20:45.895Z,5.62
2022-11-07T01:23:12.713Z,5.66
2022-11-07T01:25:40.245Z,5.53
2022-11-07T01:28:07.853Z,5.46
2022-11-07T01:30:38.768Z,5.45
2022-11-07T01:33:05.623Z,5.52
2022-11-07T01:35:34.014Z,5.68
2022-11-07T01:38:00.683Z,5.78
2022-11-07T01:40:28.304Z,5.90
2022-11-07T01:42:54.887Z,6.09
2022-11-07T01:45:33.847Z,6.33
2022-11-07T01:48:02.461Z,6.49
2022-11-07T01:50:29.606Z,6.59
2022-11-07T01:52:56.811Z,6.56
2022-11-07T01:55:29.780Z,6.63
2022-11-07T01:58:01.424Z,6.55
2022-11-07T02:00:29.067Z,6.49
2022-11-07T02:03:09.657Z,6.49
2022-11-07T02:05:49.148Z,6.70
2022-11-07T02:08:16.344Z,6.63
2022-11-07T02:10:44.236Z,6.58
2022-11-07T02:13:15.095Z,6.59
2022-11-07T02:15:41.994Z,6.58
2022-11-07T02:18:08.568Z,6.55
2022-11-07T02:20:35.230Z,6.72
2022-11-07T02:23:08.571Z,6.83
2022-11-07T02:25:35.285Z,6.95
2022-11-07T02:28:05.276Z,7.04
2022-11-07T02:30:34.716Z,7.12
2022-11-07T02:33:02.424Z,7.06
2022-11-07T02:35:35.008Z,7.09
2022-11-07T02:38:05.815Z,7.20
2022-11-07T02:40:33.551Z,7.17
2022-11-07T02:43:00.604Z,7.12
2022-11-07T02:45:31.098Z,7.17
2022-11-07T02:47:57.531Z,7.30
2022-11-07T02:50:24.586Z,7.38
2022-11-07T02:52:51.109Z,7.47
2022-11-07T02:55:17.939Z,7.51
2022-11-07T02:57:45.059Z,7.49
2022-11-07T03:00:14.400Z,7.51
2022-11-07T03:02:47.330Z,7.55
2022-11-07T03:05:18.646Z,7.55
2022-11-07T03:07:47.013Z,7.54
2022-11-07T03:10:15.486Z,7.65
2022-11-07T03:12:42.522Z,7.54
2022-11-07T03:15:10.842Z,7.66
2022-11-07T03:17:37.604Z,7.72
2022-11-07T03:20:05.020Z,7.50
2022-11-07T03:22:31.572Z,7.63
2022-11-07T03:24:58.120Z,7.74
2022-11-07T03:27:24.740Z,7.62
2022-11-07T03:29:51.299Z,7.70
2022-11-07T03:32:17.903Z,7.68
2022-11-07T03:34:44.495Z,7.66
2022-11-07T03:37:11.180Z,7.65
2022-11-07T03:39:37.728Z,7.67
2022-11-07T03:42:04.396Z,7.64
2022-11-07T03:44:31.006Z,7.61
2022-11-07T03:46:57.531Z,7.66
2022-11-07T03:49:24.089Z,7.63
2022-11-07T03:51:50.660Z,7.55
2022-11-07T03:54:17.219Z,7.60
2022-11-07T03:56:43.755Z,7.65
2022-11-07T03:59:10.281Z,7.61
2022-11-07T04:01:36.920Z,7.67
2022-11-07T04:04:03.583Z,7.61
2022-11-07T04:06:30.136Z,7.60
2022-11-07T04:08:56.688Z,7.72
2022-11-07T04:11:41.524Z,7.66
2022-11-07T04:14:26.864Z,7.63
2022-11-07T04:17:11.707Z,7.73
2022-11-07T04:19:38.230Z,7.66
2022-11-07T04:22:04.768Z,7.66
2022-11-07T04:24:31.958Z,7.70
2022-11-07T04:27:17.339Z,7.70
2022-11-07T04:29:43.905Z,7.79
2022-11-07T04:32:10.482Z,7.85
2022-11-07T04:34:37.172Z,7.75
2022-11-07T04:37:03.745Z,7.86
2022-11-07T04:39:30.315Z,7.90
2022-11-07T04:41:57.158Z,7.86
2022-11-07T04:44:23.719Z,7.94
2022-11-07T04:46:50.269Z,7.83
2022-11-07T04:49:16.838Z,7.61
2022-11-07T04:51:44.342Z,7.33
2022-11-07T04:54:13.452Z,6.98
2022-11-07T04:56:40.891Z,6.94
2022-11-07T04:59:07.853Z,6.94
2022-11-07T05:01:34.799Z,6.82
2022-11-07T05:04:01.425Z,6.67
2022-11-07T05:06:28.031Z,6.56
2022-11-07T05:08:54.601Z,6.39
2022-11-07T05:11:21.169Z,6.31
2022-11-07T05:13:47.705Z,6.08
2022-11-07T05:16:17.242Z,6.03
2022-11-07T05:18:44.147Z,5.85
2022-11-07T05:21:11.089Z,5.81
2022-11-07T05:23:37.686Z,5.90
2022-11-07T05:26:04.305Z,5.81
2022-11-07T05:28:38.608Z,5.81
2022-11-07T05:31:07.742Z,5.99
2022-11-07T05:33:35.484Z,6.09
2022-11-07T05:36:12.807Z,6.32
2022-11-07T05:38:44.487Z,6.69
2022-11-07T05:41:12.552Z,6.85
2022-11-07T05:43:39.432Z,6.96
2022-11-07T05:46:06.855Z,7.06
2022-11-07T05:48:37.179Z,7.15
2022-11-07T05:51:05.261Z,7.21
2022-11-07T05:53:32.347Z,7.28
2022-11-07T05:55:58.978Z,7.30
2022-11-07T05:58:25.679Z,7.37
2022-11-07T06:00:52.369Z,7.38
2022-11-07T06:03:20.501Z,7.42
2022-11-07T06:05:47.944Z,7.43
2022-11-07T06:08:17.566Z,7.45
2022-11-07T06:10:44.182Z,7.61
2022-11-07T06:13:13.754Z,7.51
2022-11-07T06:15:44.367Z,7.51
2022-11-07T06:18:17.948Z,7.50
2022-11-07T06:20:44.968Z,7.68
2022-11-07T06:23:12.091Z,7.68
2022-11-07T06:25:39.110Z,7.76
2022-11-07T06:28:08.598Z,7.83
2022-11-07T06:30:36.452Z,8.03
2022-11-07T06:33:05.218Z,7.94
2022-11-07T06:35:32.320Z,7.94
2022-11-07T06:38:03.504Z,8.04
2022-11-07T06:40:30.652Z,8.07
2022-11-07T06:43:09.286Z,8.09
2022-11-07T06:45:36.228Z,8.23
2022-11-07T06:48:03.045Z,8.14
2022-11-07T06:50:29.736Z,8.21
2022-11-07T06:52:56.333Z,8.37
2022-11-07T06:55:22.966Z,8.54
2022-11-07T06:57:49.768Z,8.55
2022-11-07T07:00:16.828Z,8.66
2022-11-07T07:02:57.838Z,8.80
2022-11-07T07:05:25.674Z,8.84
2022-11-07T07:07:53.615Z,8.73
2022-11-07T07:10:20.223Z,8.63
2022-11-07T07:12:46.888Z,8.81
2022-11-07T07:15:13.456Z,8.89
2022-11-07T07:17:40.019Z,8.89
2022-11-07T07:20:07.174Z,8.51
2022-11-07T07:22:33.838Z,8.53
2022-11-07T07:25:00.468Z,8.72
2022-11-07T07:27:27.104Z,8.79
2022-11-07T07:29:53.720Z,8.71
2022-11-07T07:32:21.080Z,8.76
2022-11-07T07:34:48.170Z,8.86
2022-11-07T07:37:14.840Z,8.91
2022-11-07T07:40:09.308Z,9.06
2022-11-07T07:43:35.595Z,8.97
2022-11-07T07:48:58.868Z,9.05
2022-11-07T07:51:53.351Z,8.99
2022-11-07T07:54:52.403Z,9.00
2022-11-07T07:57:48.436Z,9.06
2022-11-07T08:00:16.126Z,9.09
2022-11-07T08:06:25.149Z,9.27
2022-11-07T08:09:51.663Z,9.25
2022-11-07T08:24:01.489Z,9.11
2022-11-07T08:27:00.508Z,9.21
2022-11-07T08:54:11.943Z,9.36
2022-11-07T09:02:14.452Z,9.24
2022-11-07T09:04:02.671Z,9.25
2022-11-07T09:06:29.558Z,9.41
2022-11-07T09:08:56.146Z,9.53
2022-11-07T09:11:22.825Z,9.53
2022-11-07T09:13:49.422Z,9.64
2022-11-07T09:16:19.691Z,9.62
2022-11-07T09:18:47.848Z,9.61
2022-11-07T09:21:20.673Z,9.70
2022-11-07T09:23:48.882Z,9.65
2022-11-07T09:26:15.504Z,9.64
2022-11-07T09:28:45.754Z,9.69
2022-11-07T09:31:17.025Z,9.58
2022-11-07T09:33:43.597Z,9.85
2022-11-07T09:36:11.363Z,9.89
2022-11-07T09:38:37.993Z,10.01
2022-11-07T09:41:31.458Z,9.95
2022-11-07T09:44:12.708Z,10.24
2022-11-07T09:47:14.557Z,10.40
2022-11-07T09:49:46.177Z,10.34
2022-11-07T09:52:31.623Z,10.43
2022-11-07T09:55:41.427Z,10.69
2022-11-07T09:58:29.538Z,10.93
2022-11-07T10:01:01.124Z,11.26
2022-11-07T10:03:28.052Z,11.22
2022-11-07T10:06:00.419Z,11.41
2022-11-07T10:08:45.938Z,11.51
2022-11-07T10:11:37.373Z,11.66
2022-11-07T10:14:28.533Z,11.95
2022-11-07T10:17:04.836Z,11.94
2022-11-07T10:20:03.215Z,11.96
2022-11-07T10:22:48.413Z,11.84
2022-11-07T10:25:35.476Z,11.86
2022-11-07T10:28:07.815Z,11.90
2022-11-07T10:30:35.771Z,12.11
2022-11-07T10:33:23.705Z,12.04
2022-11-07T10:36:13.198Z,11.91
2022-11-07T10:38:42.430Z,11.86
2022-11-07T10:41:36.049Z,11.66
2022-11-07T10:44:13.737Z,11.69
2022-11-07T10:46:48.944Z,11.91
2022-11-07T10:49:19.963Z,12.11
2022-11-07T10:51:47.071Z,12.02
2022-11-07T10:54:25.735Z,12.15
2022-11-07T10:57:11.971Z,12.08
2022-11-07T10:59:46.724Z,12.47
2022-11-07T11:02:22.612Z,12.32
2022-11-07T11:04:52.238Z,12.51
2022-11-07T11:07:21.871Z,12.77
2022-11-07T11:09:58.130Z,12.76
2022-11-07T11:12:34.479Z,13.00
2022-11-07T11:15:10.531Z,13.04
2022-11-07T11:17:37.232Z,12.96
2022-11-07T11:20:04.342Z,13.15
2022-11-07T11:22:31.142Z,12.98
2022-11-07T11:25:17.040Z,12.93
2022-11-07T11:27:46.668Z,13.04
2022-11-07T11:30:19.559Z,12.63
2022-11-07T11:32:50.663Z,12.96
2022-11-07T11:35:43.729Z,12.84
2022-11-07T11:38:28.644Z,12.75
2022-11-07T11:41:25.215Z,12.49
2022-11-07T11:43:58.975Z,12.75
2022-11-07T11:46:51.825Z,12.67
2022-11-07T11:49:24.108Z,12.63
2022-11-07T11:52:03.315Z,12.20
2022-11-07T11:54:29.987Z,12.16
2022-11-07T11:57:07.206Z,12.23
2022-11-07T11:59:57.100Z,12.41
2022-11-07T12:02:42.011Z,12.56
2022-11-07T12:05:35.762Z,12.43
2022-11-07T12:08:23.694Z,11.93
2022-11-07T12:11:00.800Z,12.25
2022-11-07T12:13:47.588Z,12.09
2022-11-07T12:16:31.361Z,12.40
2022-11-07T12:19:34.981Z,12.43
2022-11-07T12:22:28.384Z,12.38
2022-11-07T12:25:15.260Z,12.39
2022-11-07T12:27:55.758Z,12.37
2022-11-07T12:30:31.859Z,12.21
2022-11-07T12:33:20.179Z,12.20
2022-11-07T12:36:10.978Z,12.18
2022-11-07T12:39:09.261Z,12.14
2022-11-07T12:41:58.578Z,11.97
2022-11-07T12:44:49.406Z,11.72
2022-11-07T12:47:34.904Z,11.72
2022-11-07T12:50:43.057Z,11.64
2022-11-07T12:53:46.114Z,11.78
2022-11-07T12:56:21.966Z,12.02
2022-11-07T12:58:48.817Z,12.26
2022-11-07T13:01:22.423Z,12.39
2022-11-07T13:04:10.191Z,12.64
2022-11-07T13:06:59.053Z,13.00
2022-11-07T13:09:39.718Z,13.50
2022-11-07T13:12:26.542Z,13.80
2022-11-07T13:14:53.776Z,14.18
2022-11-07T13:17:27.034Z,13.80
2022-11-07T13:20:04.347Z,14.72
2022-11-07T13:22:39.711Z,15.95
2022-11-07T13:25:13.450Z,16.50
2022-11-07T13:27:45.261Z,17.68
2022-11-07T13:30:15.233Z,16.75
2022-11-07T13:32:43.907Z,16.18
2022-11-07T13:35:23.994Z,15.47
2022-11-07T13:37:53.863Z,13.44
2022-11-07T13:40:26.989Z,13.87
2022-11-07T13:43:00.309Z,13.96
2022-11-07T13:45:33.495Z,14.07
2022-11-07T13:48:04.184Z,14.03
2022-11-07T13:50:42.336Z,13.64
2022-11-07T13:53:41.211Z,13.11
2022-11-07T13:56:33.978Z,13.10
2022-11-07T13:59:03.207Z,12.87
2022-11-07T14:01:42.471Z,12.64
2022-11-07T14:04:17.587Z,12.48
2022-11-07T14:06:45.048Z,12.25
2022-11-07T14:09:15.642Z,12.14
2022-11-07T14:11:42.445Z,12.02
2022-11-07T14:14:09.374Z,11.84
2022-11-07T14:16:37.919Z,11.81
2022-11-07T14:19:07.197Z,11.78
2022-11-07T14:21:36.941Z,11.67
2022-11-07T14:24:23.148Z,11.70
2022-11-07T14:27:01.822Z,11.59
2022-11-07T14:29:28.871Z,11.62
2022-11-07T14:32:01.393Z,11.45
2022-11-07T14:34:28.561Z,11.41
2022-11-07T14:37:00.784Z,11.36
2022-11-07T14:39:32.367Z,11.21
2022-11-07T14:42:02.562Z,11.15
2022-11-07T14:44:55.870Z,10.87
2022-11-07T14:47:34.830Z,10.68
2022-11-07T14:50:03.261Z,10.51
2022-11-07T14:52:36.401Z,10.36
2022-11-07T14:55:05.467Z,10.10
2022-11-07T14:57:35.377Z,9.85
2022-11-07T15:00:08.813Z,9.58
2022-11-07T15:02:35.892Z,9.36
2022-11-07T15:05:10.764Z,9.07
2022-11-07T15:07:47.766Z,8.86
2022-11-07T15:10:24.758Z,8.60
2022-11-07T15:12:54.720Z,8.41
2022-11-07T15:15:24.088Z,8.14
2022-11-07T15:17:53.416Z,7.91
2022-11-07T15:20:22.342Z,7.74
2022-11-07T15:22:49.012Z,7.54
2022-11-07T15:25:36.030Z,7.44
2022-11-07T15:28:45.035Z,7.23
2022-11-07T15:31:27.840Z,7.13
2022-11-07T15:33:56.775Z,7.03
2022-11-07T15:36:24.562Z,6.84
2022-11-07T15:38:52.466Z,6.73
2022-11-07T15:41:19.666Z,6.67
2022-11-07T15:43:46.196Z,6.54
2022-11-07T15:46:31.323Z,6.71
2022-11-07T15:48:58.069Z,6.36
2022-11-07T15:51:24.727Z,6.46
2022-11-07T15:53:51.382Z,6.42
2022-11-07T15:56:23.206Z,6.26
2022-11-07T15:58:50.512Z,6.15
2022-11-07T16:01:17.432Z,6.15
2022-11-07T16:03:44.093Z,6.14
2022-11-07T16:06:26.337Z,6.07
2022-11-07T16:08:53.347Z,6.01
2022-11-07T16:11:20.128Z,5.86
2022-11-07T16:13:47.537Z,5.98
2022-11-07T16:16:23.902Z,5.97
2022-11-07T16:18:53.650Z,5.97
2022-11-07T16:21:21.009Z,5.80
2022-11-07T16:23:50.425Z,5.75
2022-11-07T16:26:28.838Z,5.63
2022-11-07T16:28:55.470Z,5.68
2022-11-07T16:31:22.176Z,5.61
2022-11-07T16:33:48.741Z,5.46
2022-11-07T16:36:22.829Z,5.38
2022-11-07T16:38:49.380Z,5.26
2022-11-07T16:41:16.441Z,5.24
2022-11-07T16:43:43.071Z,5.19
2022-11-07T16:46:18.712Z,5.19
2022-11-07T16:48:48.740Z,5.21
2022-11-07T16:51:17.187Z,5.13
2022-11-07T16:53:44.708Z,5.06
2022-11-07T16:56:26.694Z,5.00
2022-11-07T16:58:54.541Z,5.09
2022-11-07T17:01:23.420Z,5.08
2022-11-07T17:03:50.335Z,4.93
2022-11-07T17:06:22.101Z,4.94
2022-11-07T17:08:49.179Z,4.92
2022-11-07T17:11:18.079Z,4.91
2022-11-07T17:13:45.398Z,4.71
2022-11-07T17:16:14.347Z,4.84
2022-11-07T17:18:40.912Z,4.71
2022-11-07T17:21:07.463Z,4.59
2022-11-07T17:23:34.065Z,4.80
2022-11-07T17:26:01.386Z,4.57
2022-11-07T17:28:28.131Z,4.53
2022-11-07T17:30:54.708Z,4.64
2022-11-07T17:33:26.839Z,4.55
2022-11-07T17:35:55.656Z,4.58
2022-11-07T17:38:22.252Z,4.33
2022-11-07T17:40:48.844Z,4.33
2022-11-07T17:43:15.399Z,4.30
2022-11-07T17:45:44.368Z,4.31
2022-11-07T17:48:11.330Z,4.08
2022-11-07T17:50:38.143Z,4.15
2022-11-07T17:53:08.171Z,4.07
2022-11-07T17:55:35.221Z,4.05
2022-11-07T17:58:01.796Z,4.05
2022-11-07T18:00:28.376Z,3.93
2022-11-07T18:02:55.121Z,3.97
2022-11-07T18:05:24.099Z,3.87
2022-11-07T18:07:53.780Z,3.84
2022-11-07T18:10:20.346Z,3.85
2022-11-07T18:12:46.975Z,3.81
2022-11-07T18:15:18.109Z,3.75
2022-11-07T18:17:47.286Z,3.67
2022-11-07T18:20:16.484Z,3.83
2022-11-07T18:22:46.052Z,3.71
2022-11-07T18:25:12.751Z,3.58
2022-11-07T18:27:39.343Z,3.67
2022-11-07T18:30:09.877Z,3.48
2022-11-07T18:32:36.805Z,3.51
2022-11-07T18:35:04.886Z,3.47
2022-11-07T18:37:31.929Z,3.62
2022-11-07T18:40:00.491Z,3.75
2022-11-07T18:42:27.060Z,3.74
2022-11-07T18:44:53.937Z,3.65
2022-11-07T18:47:20.527Z,3.57
2022-11-07T18:49:47.082Z,3.50
2022-11-07T18:52:13.698Z,3.68
2022-11-07T18:54:40.731Z,3.41
2022-11-07T18:57:07.490Z,3.39
2022-11-07T18:59:34.356Z,3.37
2022-11-07T19:02:01.227Z,3.28
2022-11-07T19:04:28.063Z,3.47
2022-11-07T19:06:57.811Z,3.13
2022-11-07T19:09:26.989Z,2.98
2022-11-07T19:11:53.847Z,3.14
2022-11-07T19:14:20.424Z,3.08
2022-11-07T19:16:47.378Z,3.19
2022-11-07T19:19:13.926Z,3.19
2022-11-07T19:21:43.756Z,3.08
2022-11-07T19:24:10.761Z,3.36
2022-11-07T19:26:39.611Z,3.15
2022-11-07T19:29:09.253Z,3.17
2022-11-07T19:31:36.634Z,3.12
2022-11-07T19:34:04.044Z,3.08
2022-11-07T19:36:31.658Z,3.39
2022-11-07T19:38:58.376Z,3.12
2022-11-07T19:41:24.938Z,3.09
2022-11-07T19:43:51.533Z,2.95
2022-11-07T19:46:21.249Z,3.12
2022-11-07T19:48:49.132Z,2.85
2022-11-07T19:51:23.489Z,2.75
2022-11-07T19:53:58.878Z,2.84
2022-11-07T19:56:28.255Z,2.94
2022-11-07T19:58:55.637Z,3.17
2022-11-07T20:01:28.265Z,2.82
2022-11-07T20:03:55.808Z,2.79
2022-11-07T20:06:25.924Z,2.60
2022-11-07T20:08:52.902Z,2.53
2022-11-07T20:11:23.169Z,2.39
2022-11-07T20:13:50.107Z,2.80
2022-11-07T20:16:17.266Z,2.79
2022-11-07T20:18:43.995Z,2.81
2022-11-07T20:21:16.961Z,2.96
2022-11-07T20:23:45.289Z,2.82
2022-11-07T20:26:18.716Z,2.63
2022-11-07T20:28:49.308Z,2.52
2022-11-07T20:31:16.891Z,2.51
2022-11-07T20:33:43.482Z,2.56
2022-11-07T20:36:13.042Z,2.52
2022-11-07T20:38:43.907Z,2.37
2022-11-07T20:41:12.499Z,2.47
2022-11-07T20:43:39.924Z,2.32
2022-11-07T20:46:08.949Z,2.27
2022-11-07T20:48:36.888Z,2.33
2022-11-07T20:51:27.240Z,2.31
2022-11-07T20:53:54.737Z,2.31
2022-11-07T20:56:23.327Z,2.24
2022-11-07T20:58:50.763Z,2.09
2022-11-07T21:01:21.455Z,2.15
2022-11-07T21:03:48.232Z,2.09
2022-11-07T21:06:14.947Z,2.08
2022-11-07T21:08:44.007Z,2.13
2022-11-07T21:11:11.488Z,2.28
2022-11-07T21:13:38.208Z,2.31
2022-11-07T21:16:06.423Z,2.30
2022-11-07T21:18:33.458Z,2.51
2022-11-07T21:21:06.992Z,2.49
2022-11-07T21:23:33.946Z,2.65
2022-11-07T21:26:06.537Z,2.55
2022-11-07T21:28:40.378Z,2.66
2022-11-07T21:31:10.704Z,2.72
2022-11-07T21:33:37.486Z,3.05
2022-11-07T21:36:08.670Z,3.02
2022-11-07T21:38:35.303Z,2.97
2022-11-07T21:41:05.530Z,3.09
2022-11-07T21:43:32.220Z,3.06
2022-11-07T21:46:12.587Z,2.88
2022-11-07T21:48:40.061Z,3.02
2022-11-07T21:51:18.592Z,2.83
2022-11-07T21:53:45.810Z,3.00
2022-11-07T21:56:22.726Z,2.83
2022-11-07T21:58:54.938Z,2.80
2022-11-07T22:01:22.325Z,2.72
2022-11-07T22:04:07.978Z,2.74
2022-11-07T22:06:38.023Z,2.62
2022-11-07T22:09:06.591Z,2.57
2022-11-07T22:11:33.527Z,2.57
2022-11-07T22:14:00.211Z,2.63
2022-11-07T22:16:27.003Z,2.62
2022-11-07T22:18:53.585Z,2.75
2022-11-07T22:21:22.432Z,3.02
2022-11-07T22:23:49.638Z,3.09
2022-11-07T22:26:19.459Z,3.18
2022-11-07T22:28:46.644Z,3.18
2022-11-07T22:31:22.887Z,3.22
2022-11-07T22:33:51.049Z,3.36
2022-11-07T22:36:18.662Z,3.48
2022-11-07T22:38:45.472Z,3.32
2022-11-07T22:41:18.346Z,3.33
2022-11-07T22:43:45.399Z,3.26
2022-11-07T22:46:15.101Z,3.15
2022-11-07T22:48:42.162Z,3.10
2022-11-07T22:51:11.634Z,3.03
2022-11-07T22:53:41.117Z,2.93
2022-11-07T22:56:15.142Z,3.03
2022-11-07T22:58:42.471Z,2.90
2022-11-07T23:01:21.356Z,2.95
2022-11-07T23:03:51.173Z,3.16
2022-11-07T23:06:19.028Z,3.24
2022-11-07T23:08:46.141Z,3.33
2022-11-07T23:11:45.291Z,3.28
2022-11-07T23:14:07.877Z,3.27
2022-11-07T23:16:36.898Z,3.37
2022-11-07T23:19:09.269Z,3.36
2022-11-07T23:21:36.004Z,3.34
2022-11-07T23:24:03.160Z,3.41
2022-11-07T23:26:33.663Z,3.37
2022-11-07T23:29:11.643Z,3.23
2022-11-07T23:31:43.883Z,3.20
2022-11-07T23:34:10.675Z,3.23
2022-11-07T23:36:37.888Z,3.30
2022-11-07T23:39:12.808Z,3.28
2022-11-07T23:41:39.366Z,3.20
2022-11-07T23:44:05.986Z,3.22
2022-11-07T23:46:50.907Z,3.11
2022-11-07T23:49:55.600Z,3.10
2022-11-07T23:52:22.208Z,3.04
2022-11-07T23:55:07.294Z,3.03
2022-11-07T23:57:55.685Z,2.96
